sensor_id;sensor_type;location;lat;lon;timestamp;P1;durP1;ratioP1;P2;durP2;ratioP2
295;SDS011;132;48.770;9.200;2023-02-17T00:01:22;8.70;;;5.07;;
295;SDS011;132;48.770;9.200;2023-02-17T00:03:57;8.70;;;5.00;;
295;SDS011;132;48.770;9.200;2023-02-17T00:06:25;9.70;;;5.10;;
295;SDS011;132;48.770;9.200;2023-02-17T00:08:53;8.57;;;4.80;;
295;SDS011;132;48.770;9.200;2023-02-17T00:11:20;8.07;;;4.90;;
295;SDS011;132;48.770;9.200;2023-02-17T00:13:46;10.33;;;4.40;;
295;SDS011;132;48.770;9.200;2023-02-17T00:16:17;12.53;;;4.93;;
295;SDS011;132;48.770;9.200;2023-02-17T00:18:46;7.07;;;4.40;;
295;SDS011;132;48.770;9.200;2023-02-17T00:21:17;7.30;;;4.50;;
295;SDS011;132;48.770;9.200;2023-02-17T00:23:46;8.37;;;4.83;;
295;SDS011;132;48.770;9.200;2023-02-17T00:26:14;7.97;;;4.70;;
295;SDS011;132;48.770;9.200;2023-02-17T00:28:45;10.50;;;4.67;;
295;SDS011;132;48.770;9.200;2023-02-17T00:31:13;14.10;;;4.80;;
295;SDS011;132;48.770;9.200;2023-02-17T00:33:42;8.33;;;4.50;;
295;SDS011;132;48.770;9.200;2023-02-17T00:36:13;10.30;;;5.07;;
295;SDS011;132;48.770;9.200;2023-02-17T00:38:42;7.60;;;4.77;;
295;SDS011;132;48.770;9.200;2023-02-17T00:41:09;9.50;;;4.47;;
295;SDS011;132;48.770;9.200;2023-02-17T00:43:36;11.90;;;4.30;;
295;SDS011;132;48.770;9.200;2023-02-17T00:46:02;9.13;;;4.93;;
295;SDS011;132;48.770;9.200;2023-02-17T00:48:29;13.23;;;5.03;;
295;SDS011;132;48.770;9.200;2023-02-17T00:50:56;7.93;;;4.60;;
295;SDS011;132;48.770;9.200;2023-02-17T00:53:22;9.30;;;4.80;;
295;SDS011;132;48.770;9.200;2023-02-17T00:55:49;6.50;;;4.23;;
295;SDS011;132;48.770;9.200;2023-02-17T00:58:16;8.80;;;4.22;;
295;SDS011;132;48.770;9.200;2023-02-17T01:00:42;8.90;;;4.30;;
295;SDS011;132;48.770;9.200;2023-02-17T01:03:09;9.13;;;4.73;;
295;SDS011;132;48.770;9.200;2023-02-17T01:05:39;10.07;;;4.47;;
295;SDS011;132;48.770;9.200;2023-02-17T01:08:10;7.27;;;4.30;;
295;SDS011;132;48.770;9.200;2023-02-17T01:10:36;6.60;;;3.97;;
295;SDS011;132;48.770;9.200;2023-02-17T01:13:08;8.27;;;4.23;;
295;SDS011;132;48.770;9.200;2023-02-17T01:15:41;10.50;;;4.47;;
295;SDS011;132;48.770;9.200;2023-02-17T01:18:16;7.70;;;4.30;;
295;SDS011;132;48.770;9.200;2023-02-17T01:20:44;8.13;;;4.13;;
295;SDS011;132;48.770;9.200;2023-02-17T01:23:11;6.50;;;4.05;;
295;SDS011;132;48.770;9.200;2023-02-17T01:25:38;12.80;;;4.30;;
295;SDS011;132;48.770;9.200;2023-02-17T01:28:06;6.13;;;4.00;;
295;SDS011;132;48.770;9.200;2023-02-17T01:30:34;8.97;;;3.93;;
295;SDS011;132;48.770;9.200;2023-02-17T01:33:00;6.40;;;4.20;;
295;SDS011;132;48.770;9.200;2023-02-17T01:35:27;11.40;;;4.27;;
295;SDS011;132;48.770;9.200;2023-02-17T01:37:53;7.00;;;3.80;;
295;SDS011;132;48.770;9.200;2023-02-17T01:40:19;5.57;;;3.90;;
295;SDS011;132;48.770;9.200;2023-02-17T01:42:46;6.63;;;3.70;;
295;SDS011;132;48.770;9.200;2023-02-17T01:47:47;7.80;;;4.17;;
295;SDS011;132;48.770;9.200;2023-02-17T01:50:34;8.53;;;4.50;;
295;SDS011;132;48.770;9.200;2023-02-17T01:53:27;9.30;;;4.30;;
295;SDS011;132;48.770;9.200;2023-02-17T01:55:59;5.73;;;3.83;;
295;SDS011;132;48.770;9.200;2023-02-17T01:58:26;4.80;;;3.70;;
295;SDS011;132;48.770;9.200;2023-02-17T02:00:54;6.97;;;4.00;;
295;SDS011;132;48.770;9.200;2023-02-17T02:03:24;6.53;;;4.17;;
295;SDS011;132;48.770;9.200;2023-02-17T02:05:51;11.77;;;4.63;;
295;SDS011;132;48.770;9.200;2023-02-17T02:08:18;6.20;;;3.83;;
295;SDS011;132;48.770;9.200;2023-02-17T02:10:44;10.65;;;3.78;;
295;SDS011;132;48.770;9.200;2023-02-17T02:13:11;5.88;;;3.72;;
295;SDS011;132;48.770;9.200;2023-02-17T02:15:48;8.03;;;3.90;;
295;SDS011;132;48.770;9.200;2023-02-17T02:18:43;6.33;;;3.93;;
295;SDS011;132;48.770;9.200;2023-02-17T02:27:14;7.40;;;4.10;;
295;SDS011;132;48.770;9.200;2023-02-17T02:30:16;7.35;;;3.70;;
295;SDS011;132;48.770;9.200;2023-02-17T02:37:55;7.63;;;4.20;;
295;SDS011;132;48.770;9.200;2023-02-17T02:40:34;6.13;;;4.00;;
295;SDS011;132;48.770;9.200;2023-02-17T02:43:05;10.57;;;4.03;;
295;SDS011;132;48.770;9.200;2023-02-17T02:45:34;8.97;;;4.07;;
295;SDS011;132;48.770;9.200;2023-02-17T02:48:00;7.40;;;4.40;;
295;SDS011;132;48.770;9.200;2023-02-17T02:53:30;10.83;;;4.20;;
295;SDS011;132;48.770;9.200;2023-02-17T03:01:39;10.67;;;4.80;;
295;SDS011;132;48.770;9.200;2023-02-17T03:04:14;5.40;;;3.80;;
295;SDS011;132;48.770;9.200;2023-02-17T03:07:08;10.83;;;4.00;;
295;SDS011;132;48.770;9.200;2023-02-17T03:09:36;8.03;;;3.93;;
295;SDS011;132;48.770;9.200;2023-02-17T03:12:04;6.07;;;3.60;;
295;SDS011;132;48.770;9.200;2023-02-17T03:14:34;7.30;;;4.10;;
295;SDS011;132;48.770;9.200;2023-02-17T03:17:03;7.90;;;4.53;;
295;SDS011;132;48.770;9.200;2023-02-17T03:19:29;4.83;;;3.70;;
295;SDS011;132;48.770;9.200;2023-02-17T03:21:57;7.97;;;3.83;;
295;SDS011;132;48.770;9.200;2023-02-17T03:24:30;8.10;;;4.23;;
295;SDS011;132;48.770;9.200;2023-02-17T03:26:58;8.67;;;4.30;;
295;SDS011;132;48.770;9.200;2023-02-17T03:29:24;7.00;;;3.67;;
295;SDS011;132;48.770;9.200;2023-02-17T03:31:51;6.90;;;3.70;;
295;SDS011;132;48.770;9.200;2023-02-17T03:34:17;5.70;;;3.83;;
295;SDS011;132;48.770;9.200;2023-02-17T03:36:44;6.50;;;3.80;;
295;SDS011;132;48.770;9.200;2023-02-17T03:39:10;9.60;;;4.20;;
295;SDS011;132;48.770;9.200;2023-02-17T03:41:37;6.80;;;3.97;;
295;SDS011;132;48.770;9.200;2023-02-17T03:44:03;7.83;;;4.20;;
295;SDS011;132;48.770;9.200;2023-02-17T03:46:33;8.10;;;4.27;;
295;SDS011;132;48.770;9.200;2023-02-17T03:48:59;6.23;;;4.00;;
295;SDS011;132;48.770;9.200;2023-02-17T03:51:26;8.70;;;4.03;;
295;SDS011;132;48.770;9.200;2023-02-17T03:53:52;8.50;;;4.03;;
295;SDS011;132;48.770;9.200;2023-02-17T03:56:18;10.20;;;3.80;;
295;SDS011;132;48.770;9.200;2023-02-17T03:58:45;8.27;;;4.27;;
295;SDS011;132;48.770;9.200;2023-02-17T04:01:12;5.90;;;3.60;;
295;SDS011;132;48.770;9.200;2023-02-17T04:03:39;5.80;;;3.83;;
295;SDS011;132;48.770;9.200;2023-02-17T04:06:06;8.40;;;4.07;;
295;SDS011;132;48.770;9.200;2023-02-17T04:08:34;8.97;;;3.90;;
295;SDS011;132;48.770;9.200;2023-02-17T04:11:02;6.70;;;3.67;;
295;SDS011;132;48.770;9.200;2023-02-17T04:13:30;6.57;;;4.17;;
295;SDS011;132;48.770;9.200;2023-02-17T04:15:57;8.00;;;4.90;;
295;SDS011;132;48.770;9.200;2023-02-17T04:18:26;13.57;;;4.10;;
295;SDS011;132;48.770;9.200;2023-02-17T04:20:53;5.60;;;3.80;;
295;SDS011;132;48.770;9.200;2023-02-17T04:23:19;7.40;;;4.60;;
295;SDS011;132;48.770;9.200;2023-02-17T04:25:46;9.07;;;4.63;;
295;SDS011;132;48.770;9.200;2023-02-17T04:28:13;9.00;;;4.60;;
295;SDS011;132;48.770;9.200;2023-02-17T04:30:44;7.17;;;4.13;;
295;SDS011;132;48.770;9.200;2023-02-17T04:33:12;7.17;;;3.70;;
295;SDS011;132;48.770;9.200;2023-02-17T04:35:39;6.97;;;4.00;;
295;SDS011;132;48.770;9.200;2023-02-17T04:38:06;8.23;;;4.23;;
295;SDS011;132;48.770;9.200;2023-02-17T04:40:33;8.67;;;4.37;;
295;SDS011;132;48.770;9.200;2023-02-17T04:42:59;10.00;;;4.70;;
295;SDS011;132;48.770;9.200;2023-02-17T04:45:26;7.63;;;3.97;;
295;SDS011;132;48.770;9.200;2023-02-17T04:47:52;7.90;;;3.90;;
295;SDS011;132;48.770;9.200;2023-02-17T04:50:19;9.90;;;4.10;;
295;SDS011;132;48.770;9.200;2023-02-17T04:52:45;9.80;;;3.97;;
295;SDS011;132;48.770;9.200;2023-02-17T04:55:12;5.53;;;3.70;;
295;SDS011;132;48.770;9.200;2023-02-17T04:57:38;9.10;;;4.17;;
295;SDS011;132;48.770;9.200;2023-02-17T05:00:05;8.63;;;4.63;;
295;SDS011;132;48.770;9.200;2023-02-17T05:02:32;7.47;;;4.35;;
295;SDS011;132;48.770;9.200;2023-02-17T05:04:58;5.88;;;3.50;;
295;SDS011;132;48.770;9.200;2023-02-17T05:07:25;7.43;;;3.90;;
295;SDS011;132;48.770;9.200;2023-02-17T05:09:51;10.10;;;5.28;;
295;SDS011;132;48.770;9.200;2023-02-17T05:12:19;7.95;;;4.43;;
295;SDS011;132;48.770;9.200;2023-02-17T05:14:45;11.80;;;4.13;;
295;SDS011;132;48.770;9.200;2023-02-17T05:17:11;10.53;;;3.93;;
295;SDS011;132;48.770;9.200;2023-02-17T05:19:38;11.33;;;4.30;;
295;SDS011;132;48.770;9.200;2023-02-17T05:22:04;9.85;;;4.50;;
295;SDS011;132;48.770;9.200;2023-02-17T05:24:31;12.98;;;4.57;;
295;SDS011;132;48.770;9.200;2023-02-17T05:26:57;7.83;;;4.40;;
295;SDS011;132;48.770;9.200;2023-02-17T05:29:24;7.13;;;4.60;;
295;SDS011;132;48.770;9.200;2023-02-17T05:31:50;9.03;;;4.67;;
295;SDS011;132;48.770;9.200;2023-02-17T05:34:16;8.68;;;4.40;;
295;SDS011;132;48.770;9.200;2023-02-17T05:36:43;7.88;;;4.22;;
295;SDS011;132;48.770;9.200;2023-02-17T05:39:09;6.20;;;4.40;;
295;SDS011;132;48.770;9.200;2023-02-17T05:41:36;8.87;;;4.70;;
295;SDS011;132;48.770;9.200;2023-02-17T05:44:02;7.70;;;4.20;;
295;SDS011;132;48.770;9.200;2023-02-17T05:46:29;8.50;;;4.03;;
295;SDS011;132;48.770;9.200;2023-02-17T05:48:56;8.00;;;4.27;;
295;SDS011;132;48.770;9.200;2023-02-17T05:51:22;7.22;;;4.63;;
295;SDS011;132;48.770;9.200;2023-02-17T05:53:48;9.20;;;4.67;;
295;SDS011;132;48.770;9.200;2023-02-17T05:56:15;10.87;;;4.60;;
295;SDS011;132;48.770;9.200;2023-02-17T05:58:41;10.75;;;4.50;;
295;SDS011;132;48.770;9.200;2023-02-17T06:01:08;8.30;;;3.80;;
295;SDS011;132;48.770;9.200;2023-02-17T06:03:35;7.03;;;4.50;;
295;SDS011;132;48.770;9.200;2023-02-17T06:06:03;10.20;;;4.60;;
295;SDS011;132;48.770;9.200;2023-02-17T06:08:30;8.50;;;4.30;;
295;SDS011;132;48.770;9.200;2023-02-17T06:10:56;15.20;;;4.60;;
295;SDS011;132;48.770;9.200;2023-02-17T06:13:23;10.73;;;4.63;;
295;SDS011;132;48.770;9.200;2023-02-17T06:15:49;10.03;;;4.10;;
295;SDS011;132;48.770;9.200;2023-02-17T06:18:16;9.63;;;4.40;;
295;SDS011;132;48.770;9.200;2023-02-17T06:20:42;5.23;;;3.53;;
295;SDS011;132;48.770;9.200;2023-02-17T06:23:09;9.43;;;4.43;;
295;SDS011;132;48.770;9.200;2023-02-17T06:25:36;6.90;;;4.43;;
295;SDS011;132;48.770;9.200;2023-02-17T06:28:02;8.23;;;4.20;;
295;SDS011;132;48.770;9.200;2023-02-17T06:30:29;9.23;;;4.30;;
295;SDS011;132;48.770;9.200;2023-02-17T06:32:56;7.20;;;4.13;;
295;SDS011;132;48.770;9.200;2023-02-17T06:35:24;12.37;;;4.50;;
295;SDS011;132;48.770;9.200;2023-02-17T06:37:50;9.80;;;4.50;;
295;SDS011;132;48.770;9.200;2023-02-17T06:40:17;8.40;;;4.83;;
295;SDS011;132;48.770;9.200;2023-02-17T06:42:43;6.10;;;4.00;;
295;SDS011;132;48.770;9.200;2023-02-17T06:45:10;10.80;;;4.00;;
295;SDS011;132;48.770;9.200;2023-02-17T06:47:36;13.47;;;4.23;;
295;SDS011;132;48.770;9.200;2023-02-17T06:50:03;9.00;;;4.10;;
295;SDS011;132;48.770;9.200;2023-02-17T06:52:30;9.67;;;4.60;;
295;SDS011;132;48.770;9.200;2023-02-17T06:54:56;9.13;;;4.80;;
295;SDS011;132;48.770;9.200;2023-02-17T06:57:22;9.20;;;4.00;;
295;SDS011;132;48.770;9.200;2023-02-17T06:59:49;7.60;;;3.90;;
295;SDS011;132;48.770;9.200;2023-02-17T07:02:15;9.13;;;4.17;;
295;SDS011;132;48.770;9.200;2023-02-17T07:04:42;13.27;;;4.10;;
295;SDS011;132;48.770;9.200;2023-02-17T07:07:08;8.60;;;4.27;;
295;SDS011;132;48.770;9.200;2023-02-17T07:09:35;11.03;;;4.67;;
295;SDS011;132;48.770;9.200;2023-02-17T07:12:03;19.77;;;4.53;;
295;SDS011;132;48.770;9.200;2023-02-17T07:14:30;8.43;;;3.93;;
295;SDS011;132;48.770;9.200;2023-02-17T07:16:58;6.33;;;3.80;;
295;SDS011;132;48.770;9.200;2023-02-17T07:19:24;5.80;;;3.90;;
295;SDS011;132;48.770;9.200;2023-02-17T07:21:51;7.13;;;4.37;;
295;SDS011;132;48.770;9.200;2023-02-17T07:24:17;9.70;;;4.70;;
295;SDS011;132;48.770;9.200;2023-02-17T07:26:44;6.13;;;3.90;;
295;SDS011;132;48.770;9.200;2023-02-17T07:29:10;6.00;;;3.70;;
295;SDS011;132;48.770;9.200;2023-02-17T07:31:36;7.50;;;3.90;;
295;SDS011;132;48.770;9.200;2023-02-17T07:34:03;9.17;;;4.10;;
295;SDS011;132;48.770;9.200;2023-02-17T07:36:29;6.73;;;3.80;;
295;SDS011;132;48.770;9.200;2023-02-17T07:38:56;11.00;;;4.10;;
295;SDS011;132;48.770;9.200;2023-02-17T07:41:23;5.33;;;3.80;;
295;SDS011;132;48.770;9.200;2023-02-17T07:43:54;8.00;;;4.10;;
295;SDS011;132;48.770;9.200;2023-02-17T07:46:22;9.70;;;4.03;;
295;SDS011;132;48.770;9.200;2023-02-17T07:48:49;7.40;;;3.90;;
295;SDS011;132;48.770;9.200;2023-02-17T07:51:17;5.00;;;3.60;;
295;SDS011;132;48.770;9.200;2023-02-17T07:53:45;4.77;;;3.67;;
295;SDS011;132;48.770;9.200;2023-02-17T07:56:12;8.60;;;3.80;;
295;SDS011;132;48.770;9.200;2023-02-17T07:58:40;5.70;;;3.57;;
295;SDS011;132;48.770;9.200;2023-02-17T08:01:08;11.03;;;3.97;;
295;SDS011;132;48.770;9.200;2023-02-17T08:03:37;10.97;;;3.93;;
295;SDS011;132;48.770;9.200;2023-02-17T08:06:03;8.40;;;3.47;;
295;SDS011;132;48.770;9.200;2023-02-17T08:08:34;10.60;;;3.97;;
295;SDS011;132;48.770;9.200;2023-02-17T08:11:19;5.70;;;3.80;;
295;SDS011;132;48.770;9.200;2023-02-17T08:14:04;4.90;;;3.53;;
295;SDS011;132;48.770;9.200;2023-02-17T08:16:30;11.10;;;3.90;;
295;SDS011;132;48.770;9.200;2023-02-17T08:18:57;6.40;;;3.47;;
295;SDS011;132;48.770;9.200;2023-02-17T08:21:24;10.27;;;3.23;;
295;SDS011;132;48.770;9.200;2023-02-17T08:23:51;9.90;;;3.83;;
295;SDS011;132;48.770;9.200;2023-02-17T08:26:18;7.43;;;3.43;;
295;SDS011;132;48.770;9.200;2023-02-17T08:28:45;11.93;;;3.80;;
295;SDS011;132;48.770;9.200;2023-02-17T08:31:17;8.73;;;3.67;;
295;SDS011;132;48.770;9.200;2023-02-17T08:33:46;7.93;;;3.40;;
295;SDS011;132;48.770;9.200;2023-02-17T08:36:13;7.37;;;3.90;;
295;SDS011;132;48.770;9.200;2023-02-17T08:38:39;6.30;;;3.20;;
295;SDS011;132;48.770;9.200;2023-02-17T08:43:44;6.17;;;3.47;;
295;SDS011;132;48.770;9.200;2023-02-17T08:46:11;7.00;;;3.57;;
295;SDS011;132;48.770;9.200;2023-02-17T08:48:38;7.03;;;3.20;;
295;SDS011;132;48.770;9.200;2023-02-17T08:51:05;7.03;;;3.47;;
295;SDS011;132;48.770;9.200;2023-02-17T08:53:32;4.63;;;3.33;;
295;SDS011;132;48.770;9.200;2023-02-17T08:55:59;5.00;;;3.50;;
295;SDS011;132;48.770;9.200;2023-02-17T08:58:25;5.07;;;3.20;;
295;SDS011;132;48.770;9.200;2023-02-17T09:00:52;4.73;;;3.30;;
295;SDS011;132;48.770;9.200;2023-02-17T09:03:18;4.77;;;3.17;;
295;SDS011;132;48.770;9.200;2023-02-17T09:05:44;7.50;;;3.17;;
295;SDS011;132;48.770;9.200;2023-02-17T09:08:11;4.77;;;3.30;;
295;SDS011;132;48.770;9.200;2023-02-17T09:10:37;4.00;;;2.90;;
295;SDS011;132;48.770;9.200;2023-02-17T09:13:04;6.23;;;3.10;;
295;SDS011;132;48.770;9.200;2023-02-17T09:15:31;5.70;;;3.00;;
295;SDS011;132;48.770;9.200;2023-02-17T09:17:57;5.67;;;3.03;;
295;SDS011;132;48.770;9.200;2023-02-17T09:20:23;4.83;;;3.23;;
295;SDS011;132;48.770;9.200;2023-02-17T09:22:50;5.27;;;3.00;;
295;SDS011;132;48.770;9.200;2023-02-17T09:25:16;9.07;;;3.67;;
295;SDS011;132;48.770;9.200;2023-02-17T09:27:43;6.17;;;3.70;;
295;SDS011;132;48.770;9.200;2023-02-17T09:30:10;6.27;;;3.17;;
295;SDS011;132;48.770;9.200;2023-02-17T09:32:39;6.03;;;4.03;;
295;SDS011;132;48.770;9.200;2023-02-17T09:35:06;4.77;;;3.00;;
295;SDS011;132;48.770;9.200;2023-02-17T09:37:35;4.57;;;2.93;;
295;SDS011;132;48.770;9.200;2023-02-17T09:40:02;4.67;;;3.27;;
295;SDS011;132;48.770;9.200;2023-02-17T09:42:29;4.53;;;2.93;;
295;SDS011;132;48.770;9.200;2023-02-17T09:44:59;7.73;;;2.83;;
295;SDS011;132;48.770;9.200;2023-02-17T09:47:37;4.67;;;3.00;;
295;SDS011;132;48.770;9.200;2023-02-17T09:50:11;4.07;;;3.00;;
295;SDS011;132;48.770;9.200;2023-02-17T09:52:44;5.13;;;3.07;;
295;SDS011;132;48.770;9.200;2023-02-17T09:55:25;5.23;;;3.07;;
295;SDS011;132;48.770;9.200;2023-02-17T09:57:56;5.20;;;2.80;;
295;SDS011;132;48.770;9.200;2023-02-17T10:00:28;4.43;;;3.30;;
295;SDS011;132;48.770;9.200;2023-02-17T10:03:01;7.57;;;3.00;;
295;SDS011;132;48.770;9.200;2023-02-17T10:05:32;5.57;;;3.10;;
295;SDS011;132;48.770;9.200;2023-02-17T10:10:42;4.47;;;3.23;;
295;SDS011;132;48.770;9.200;2023-02-17T10:13:29;3.47;;;2.70;;
295;SDS011;132;48.770;9.200;2023-02-17T10:15:59;4.90;;;2.93;;
295;SDS011;132;48.770;9.200;2023-02-17T10:18:33;4.20;;;2.70;;
295;SDS011;132;48.770;9.200;2023-02-17T10:21:06;6.50;;;3.10;;
295;SDS011;132;48.770;9.200;2023-02-17T10:23:44;3.97;;;2.83;;
295;SDS011;132;48.770;9.200;2023-02-17T10:26:21;5.20;;;3.00;;
295;SDS011;132;48.770;9.200;2023-02-17T10:29:33;5.60;;;3.00;;
295;SDS011;132;48.770;9.200;2023-02-17T10:37:49;5.73;;;3.23;;
295;SDS011;132;48.770;9.200;2023-02-17T10:40:26;3.60;;;2.80;;
295;SDS011;132;48.770;9.200;2023-02-17T10:42:54;3.23;;;2.60;;
295;SDS011;132;48.770;9.200;2023-02-17T10:45:31;2.90;;;2.50;;
295;SDS011;132;48.770;9.200;2023-02-17T10:48:02;4.57;;;2.83;;
295;SDS011;132;48.770;9.200;2023-02-17T10:50:48;4.17;;;2.70;;
295;SDS011;132;48.770;9.200;2023-02-17T10:53:18;4.60;;;2.60;;
295;SDS011;132;48.770;9.200;2023-02-17T10:59:13;5.00;;;2.57;;
295;SDS011;132;48.770;9.200;2023-02-17T11:01:48;4.67;;;2.90;;
295;SDS011;132;48.770;9.200;2023-02-17T11:04:16;2.73;;;2.43;;
295;SDS011;132;48.770;9.200;2023-02-17T11:06:43;5.30;;;2.50;;
295;SDS011;132;48.770;9.200;2023-02-17T11:09:24;3.50;;;2.53;;
295;SDS011;132;48.770;9.200;2023-02-17T11:12:00;4.17;;;2.57;;
295;SDS011;132;48.770;9.200;2023-02-17T11:14:30;5.37;;;2.70;;
295;SDS011;132;48.770;9.200;2023-02-17T11:17:12;4.00;;;2.80;;
295;SDS011;132;48.770;9.200;2023-02-17T11:19:54;10.13;;;2.50;;
295;SDS011;132;48.770;9.200;2023-02-17T11:22:38;2.30;;;2.10;;
295;SDS011;132;48.770;9.200;2023-02-17T11:28:03;8.10;;;2.47;;
295;SDS011;132;48.770;9.200;2023-02-17T11:30:35;3.03;;;2.23;;
295;SDS011;132;48.770;9.200;2023-02-17T11:33:11;2.47;;;2.00;;
295;SDS011;132;48.770;9.200;2023-02-17T11:38:10;2.57;;;2.03;;
295;SDS011;132;48.770;9.200;2023-02-17T11:40:55;3.83;;;2.00;;
295;SDS011;132;48.770;9.200;2023-02-17T11:43:22;3.90;;;2.10;;
295;SDS011;132;48.770;9.200;2023-02-17T11:54:22;2.00;;;1.90;;
295;SDS011;132;48.770;9.200;2023-02-17T11:57:04;3.47;;;2.10;;
295;SDS011;132;48.770;9.200;2023-02-17T11:59:59;4.30;;;1.87;;
295;SDS011;132;48.770;9.200;2023-02-17T12:02:45;4.17;;;2.03;;
295;SDS011;132;48.770;9.200;2023-02-17T12:16:26;1.90;;;1.80;;
295;SDS011;132;48.770;9.200;2023-02-17T12:22:59;4.77;;;2.10;;
295;SDS011;132;48.770;9.200;2023-02-17T12:27:47;2.90;;;1.90;;
295;SDS011;132;48.770;9.200;2023-02-17T12:35:53;2.50;;;2.00;;
295;SDS011;132;48.770;9.200;2023-02-17T12:38:26;2.40;;;2.10;;
295;SDS011;132;48.770;9.200;2023-02-17T12:46:19;2.37;;;1.87;;
295;SDS011;132;48.770;9.200;2023-02-17T12:48:50;2.50;;;2.07;;
295;SDS011;132;48.770;9.200;2023-02-17T12:51:57;2.40;;;2.10;;
295;SDS011;132;48.770;9.200;2023-02-17T12:54:35;1.87;;;1.80;;
295;SDS011;132;48.770;9.200;2023-02-17T12:57:10;3.80;;;1.80;;
295;SDS011;132;48.770;9.200;2023-02-17T12:59:43;6.00;;;2.10;;
295;SDS011;132;48.770;9.200;2023-02-17T13:02:12;3.93;;;2.10;;
295;SDS011;132;48.770;9.200;2023-02-17T13:04:42;2.60;;;1.67;;
295;SDS011;132;48.770;9.200;2023-02-17T13:09:58;4.73;;;1.90;;
295;SDS011;132;48.770;9.200;2023-02-17T13:14:54;6.20;;;2.37;;
295;SDS011;132;48.770;9.200;2023-02-17T13:22:39;2.80;;;2.00;;
295;SDS011;132;48.770;9.200;2023-02-17T13:25:09;2.20;;;1.90;;
295;SDS011;132;48.770;9.200;2023-02-17T13:27:52;2.87;;;1.90;;
295;SDS011;132;48.770;9.200;2023-02-17T13:35:33;2.83;;;1.90;;
295;SDS011;132;48.770;9.200;2023-02-17T13:38:01;2.37;;;2.00;;
295;SDS011;132;48.770;9.200;2023-02-17T13:43:06;2.87;;;2.00;;
295;SDS011;132;48.770;9.200;2023-02-17T13:48:29;2.00;;;1.90;;
295;SDS011;132;48.770;9.200;2023-02-17T13:50:57;3.97;;;2.00;;
295;SDS011;132;48.770;9.200;2023-02-17T13:53:35;1.77;;;1.77;;
295;SDS011;132;48.770;9.200;2023-02-17T13:56:08;1.70;;;1.70;;
295;SDS011;132;48.770;9.200;2023-02-17T13:58:37;3.27;;;1.83;;
295;SDS011;132;48.770;9.200;2023-02-17T14:01:07;4.67;;;2.00;;
295;SDS011;132;48.770;9.200;2023-02-17T14:06:29;2.50;;;1.93;;
295;SDS011;132;48.770;9.200;2023-02-17T14:09:10;7.40;;;2.13;;
295;SDS011;132;48.770;9.200;2023-02-17T14:11:46;2.50;;;2.03;;
295;SDS011;132;48.770;9.200;2023-02-17T14:14:14;1.87;;;1.80;;
295;SDS011;132;48.770;9.200;2023-02-17T14:16:41;2.37;;;2.00;;
295;SDS011;132;48.770;9.200;2023-02-17T14:19:10;2.40;;;2.10;;
295;SDS011;132;48.770;9.200;2023-02-17T14:21:55;2.67;;;1.90;;
295;SDS011;132;48.770;9.200;2023-02-17T14:24:35;2.23;;;1.90;;
295;SDS011;132;48.770;9.200;2023-02-17T14:27:04;4.27;;;2.30;;
295;SDS011;132;48.770;9.200;2023-02-17T14:29:43;3.10;;;2.10;;
295;SDS011;132;48.770;9.200;2023-02-17T14:37:40;3.90;;;2.20;;
295;SDS011;132;48.770;9.200;2023-02-17T14:40:17;2.63;;;1.90;;
295;SDS011;132;48.770;9.200;2023-02-17T14:42:46;2.20;;;1.93;;
295;SDS011;132;48.770;9.200;2023-02-17T14:45:13;2.10;;;1.90;;
295;SDS011;132;48.770;9.200;2023-02-17T14:47:40;3.73;;;2.10;;
295;SDS011;132;48.770;9.200;2023-02-17T14:50:08;2.33;;;2.10;;
295;SDS011;132;48.770;9.200;2023-02-17T14:52:37;3.10;;;2.30;;
295;SDS011;132;48.770;9.200;2023-02-17T14:55:44;3.13;;;2.33;;
295;SDS011;132;48.770;9.200;2023-02-17T14:58:07;4.37;;;2.60;;
295;SDS011;132;48.770;9.200;2023-02-17T15:00:40;4.60;;;2.43;;
295;SDS011;132;48.770;9.200;2023-02-17T15:03:07;5.30;;;2.83;;
295;SDS011;132;48.770;9.200;2023-02-17T15:05:33;5.30;;;2.60;;
295;SDS011;132;48.770;9.200;2023-02-17T15:07:59;4.30;;;3.00;;
295;SDS011;132;48.770;9.200;2023-02-17T15:10:26;4.80;;;2.50;;
295;SDS011;132;48.770;9.200;2023-02-17T15:12:54;6.93;;;2.73;;
295;SDS011;132;48.770;9.200;2023-02-17T15:15:21;3.60;;;2.80;;
295;SDS011;132;48.770;9.200;2023-02-17T15:17:48;5.80;;;2.87;;
295;SDS011;132;48.770;9.200;2023-02-17T15:20:15;9.47;;;2.90;;
295;SDS011;132;48.770;9.200;2023-02-17T15:22:41;5.60;;;3.10;;
295;SDS011;132;48.770;9.200;2023-02-17T15:25:13;4.97;;;2.77;;
295;SDS011;132;48.770;9.200;2023-02-17T15:27:41;5.73;;;2.90;;
295;SDS011;132;48.770;9.200;2023-02-17T15:30:09;7.60;;;2.80;;
295;SDS011;132;48.770;9.200;2023-02-17T15:32:37;6.73;;;3.10;;
295;SDS011;132;48.770;9.200;2023-02-17T15:35:11;3.33;;;3.03;;
295;SDS011;132;48.770;9.200;2023-02-17T15:37:49;5.83;;;3.13;;
295;SDS011;132;48.770;9.200;2023-02-17T15:40:22;5.37;;;3.10;;
295;SDS011;132;48.770;9.200;2023-02-17T15:42:54;7.70;;;2.67;;
295;SDS011;132;48.770;9.200;2023-02-17T15:45:22;5.53;;;3.00;;
295;SDS011;132;48.770;9.200;2023-02-17T15:47:51;5.70;;;2.87;;
295;SDS011;132;48.770;9.200;2023-02-17T15:50:25;4.80;;;2.80;;
295;SDS011;132;48.770;9.200;2023-02-17T15:52:51;4.77;;;2.80;;
295;SDS011;132;48.770;9.200;2023-02-17T15:55:18;3.80;;;2.63;;
295;SDS011;132;48.770;9.200;2023-02-17T15:57:49;8.13;;;2.87;;
295;SDS011;132;48.770;9.200;2023-02-17T16:00:23;3.83;;;2.60;;
295;SDS011;132;48.770;9.200;2023-02-17T16:02:52;4.10;;;2.87;;
295;SDS011;132;48.770;9.200;2023-02-17T16:05:20;6.93;;;2.87;;
295;SDS011;132;48.770;9.200;2023-02-17T16:07:48;5.33;;;2.70;;
295;SDS011;132;48.770;9.200;2023-02-17T16:10:15;4.67;;;2.40;;
295;SDS011;132;48.770;9.200;2023-02-17T16:12:45;3.30;;;2.50;;
295;SDS011;132;48.770;9.200;2023-02-17T16:15:18;5.40;;;2.47;;
295;SDS011;132;48.770;9.200;2023-02-17T16:17:47;4.70;;;2.50;;
295;SDS011;132;48.770;9.200;2023-02-17T16:20:20;4.20;;;2.40;;
295;SDS011;132;48.770;9.200;2023-02-17T16:22:49;7.70;;;3.00;;
295;SDS011;132;48.770;9.200;2023-02-17T16:25:16;4.70;;;2.90;;
295;SDS011;132;48.770;9.200;2023-02-17T16:27:44;5.43;;;2.80;;
295;SDS011;132;48.770;9.200;2023-02-17T16:32:59;3.17;;;2.60;;
295;SDS011;132;48.770;9.200;2023-02-17T16:35:27;4.53;;;2.70;;
295;SDS011;132;48.770;9.200;2023-02-17T16:37:56;3.83;;;2.90;;
295;SDS011;132;48.770;9.200;2023-02-17T16:40:33;8.10;;;3.53;;
295;SDS011;132;48.770;9.200;2023-02-17T16:43:01;5.00;;;2.90;;
295;SDS011;132;48.770;9.200;2023-02-17T16:45:29;4.17;;;2.60;;
295;SDS011;132;48.770;9.200;2023-02-17T16:47:58;8.97;;;3.27;;
295;SDS011;132;48.770;9.200;2023-02-17T16:50:26;5.93;;;3.20;;
295;SDS011;132;48.770;9.200;2023-02-17T16:52:53;3.60;;;2.93;;
295;SDS011;132;48.770;9.200;2023-02-17T16:55:26;6.13;;;2.80;;
295;SDS011;132;48.770;9.200;2023-02-17T16:57:55;4.00;;;2.80;;
295;SDS011;132;48.770;9.200;2023-02-17T17:00:23;6.60;;;3.20;;
295;SDS011;132;48.770;9.200;2023-02-17T17:02:52;3.00;;;2.73;;
295;SDS011;132;48.770;9.200;2023-02-17T17:05:19;4.40;;;3.00;;
295;SDS011;132;48.770;9.200;2023-02-17T17:07:46;4.53;;;3.00;;
295;SDS011;132;48.770;9.200;2023-02-17T17:10:14;3.87;;;2.70;;
295;SDS011;132;48.770;9.200;2023-02-17T17:12:42;8.47;;;2.87;;
295;SDS011;132;48.770;9.200;2023-02-17T17:15:10;5.50;;;2.50;;
295;SDS011;132;48.770;9.200;2023-02-17T17:18:00;5.03;;;2.80;;
295;SDS011;132;48.770;9.200;2023-02-17T17:20:33;3.77;;;3.10;;
295;SDS011;132;48.770;9.200;2023-02-17T17:23:03;5.50;;;2.80;;
295;SDS011;132;48.770;9.200;2023-02-17T17:25:36;5.40;;;3.10;;
295;SDS011;132;48.770;9.200;2023-02-17T17:28:04;3.77;;;2.87;;
295;SDS011;132;48.770;9.200;2023-02-17T17:30:32;5.10;;;3.17;;
295;SDS011;132;48.770;9.200;2023-02-17T17:33:03;6.63;;;3.17;;
295;SDS011;132;48.770;9.200;2023-02-17T17:35:30;4.90;;;2.70;;
295;SDS011;132;48.770;9.200;2023-02-17T17:37:56;3.60;;;2.50;;
295;SDS011;132;48.770;9.200;2023-02-17T17:40:24;3.93;;;2.80;;
295;SDS011;132;48.770;9.200;2023-02-17T17:42:53;3.47;;;2.80;;
295;SDS011;132;48.770;9.200;2023-02-17T17:45:19;4.40;;;3.00;;
295;SDS011;132;48.770;9.200;2023-02-17T17:47:47;6.03;;;3.43;;
295;SDS011;132;48.770;9.200;2023-02-17T17:50:15;6.03;;;3.00;;
295;SDS011;132;48.770;9.200;2023-02-17T17:52:44;5.00;;;3.00;;